createdAt,value
2019-02-19T00:03:46.399Z,10.90
2019-02-19T00:08:52.490Z,10.80
2019-02-19T00:13:59.325Z,10.60
2019-02-19T00:19:06.527Z,10.40
2019-02-19T00:24:12.688Z,10.40
2019-02-19T00:29:20.044Z,10.30
2019-02-19T00:34:37.978Z,10.20
2019-02-19T00:39:43.890Z,10.10
2019-02-19T00:44:50.308Z,10.10
2019-02-19T00:49:56.499Z,10.10
2019-02-19T00:55:11.827Z,10.00
2019-02-19T01:00:21.779Z,9.80
2019-02-19T01:05:29.337Z,9.70
2019-02-19T01:10:37.144Z,9.50
2019-02-19T01:15:43.384Z,9.50
2019-02-19T01:20:51.035Z,9.30
2019-02-19T01:25:58.089Z,9.20
2019-02-19T01:31:04.120Z,9.20
2019-02-19T01:36:11.156Z,9.10
2019-02-19T01:41:17.131Z,9.10
2019-02-19T01:46:23.123Z,9.10
2019-02-19T01:51:30.104Z,9.20
2019-02-19T01:56:37.177Z,9.20
2019-02-19T02:01:43.242Z,9.10
2019-02-19T02:06:49.772Z,9.10
2019-02-19T02:11:56.374Z,9.10
2019-02-19T02:17:02.385Z,9.10
2019-02-19T02:22:09.559Z,9.20
2019-02-19T02:27:16.370Z,9.30
2019-02-19T02:32:22.447Z,9.40
2019-02-19T02:37:30.279Z,9.40
2019-02-19T02:42:37.318Z,9.50
2019-02-19T02:47:43.236Z,9.40
2019-02-19T02:52:51.156Z,9.40
2019-02-19T02:57:57.853Z,9.30
2019-02-19T03:03:03.853Z,9.30
2019-02-19T03:08:14.086Z,9.20
2019-02-19T03:13:21.323Z,9.10
2019-02-19T03:18:28.444Z,9.10
2019-02-19T03:23:34.442Z,9.00
2019-02-19T03:28:41.475Z,9.00
2019-02-19T03:33:48.970Z,8.90
2019-02-19T03:39:14.144Z,8.90
2019-02-19T03:44:21.241Z,8.90
2019-02-19T03:49:28.615Z,9.00
2019-02-19T03:54:34.866Z,9.00
2019-02-19T03:59:41.302Z,8.80
2019-02-19T04:04:48.916Z,8.80
2019-02-19T04:09:55.004Z,8.70
2019-02-19T04:15:02.880Z,8.70
2019-02-19T04:20:10.810Z,8.60
2019-02-19T04:25:18.637Z,8.70
2019-02-19T04:30:24.883Z,8.70
2019-02-19T04:35:31.381Z,8.60
2019-02-19T04:40:39.362Z,8.70
2019-02-19T04:45:45.547Z,8.80
2019-02-19T04:50:51.737Z,8.80
2019-02-19T04:55:57.800Z,8.80
2019-02-19T05:01:03.993Z,8.90
2019-02-19T05:06:11.169Z,9.00
2019-02-19T05:11:18.965Z,9.00
2019-02-19T05:16:25.034Z,8.90
2019-02-19T05:21:32.819Z,8.70
2019-02-19T05:26:40.543Z,8.70
2019-02-19T05:31:47.012Z,8.70
2019-02-19T05:36:53.240Z,8.80
2019-02-19T05:42:01.506Z,8.80
2019-02-19T05:47:08.680Z,8.90
2019-02-19T05:52:14.739Z,9.00
2019-02-19T05:57:22.751Z,9.10
2019-02-19T06:02:29.455Z,9.30
2019-02-19T06:07:37.438Z,9.30
2019-02-19T06:12:43.760Z,9.30
2019-02-19T06:17:51.695Z,9.30
2019-02-19T06:22:57.955Z,9.20
2019-02-19T06:28:04.258Z,9.20
2019-02-19T06:33:11.137Z,9.20
2019-02-19T06:38:17.283Z,9.20
2019-02-19T06:43:23.394Z,9.30
2019-02-19T06:48:31.436Z,9.30
2019-02-19T06:53:38.720Z,9.50
2019-02-19T06:58:44.908Z,9.40
2019-02-19T07:03:57.771Z,9.30
2019-02-19T07:09:03.971Z,9.20
2019-02-19T07:14:11.274Z,9.10
2019-02-19T07:19:18.943Z,9.20
2019-02-19T07:24:25.369Z,9.20
2019-02-19T07:29:31.541Z,9.30
2019-02-19T07:34:38.343Z,9.30
2019-02-19T07:39:44.535Z,9.40
2019-02-19T07:44:51.514Z,9.50
2019-02-19T07:50:00.297Z,9.70
2019-02-19T07:55:09.726Z,9.80
2019-02-19T08:00:17.546Z,10.00
2019-02-19T08:05:23.889Z,10.30
2019-02-19T08:10:31.232Z,10.60
2019-02-19T08:15:39.059Z,11.10
2019-02-19T08:20:45.732Z,11.50
2019-02-19T08:25:51.985Z,12.10
2019-02-19T08:30:58.722Z,12.30
2019-02-19T08:36:04.815Z,12.60
2019-02-19T08:41:11.243Z,12.70
2019-02-19T08:46:18.332Z,13.00
2019-02-19T08:51:24.468Z,13.10
2019-02-19T08:56:32.632Z,13.20
2019-02-19T09:01:40.952Z,13.40
2019-02-19T09:06:48.733Z,13.20
2019-02-19T09:11:56.168Z,13.40
2019-02-19T09:17:02.375Z,13.60
2019-02-19T09:22:10.224Z,14.10
2019-02-19T09:27:16.353Z,14.30
2019-02-19T09:32:22.521Z,14.50
2019-02-19T09:37:29.398Z,14.70
2019-02-19T09:42:36.878Z,14.60
2019-02-19T09:47:44.233Z,14.70
2019-02-19T09:52:59.789Z,14.40
2019-02-19T09:58:01.230Z,14.50
2019-02-19T10:03:08.613Z,14.50
2019-02-19T10:08:14.738Z,14.60
2019-02-19T10:13:22.693Z,14.70
2019-02-19T10:18:36.683Z,15.00
2019-02-19T10:23:44.024Z,15.00
2019-02-19T10:28:51.513Z,15.20
2019-02-19T10:33:58.651Z,15.10
2019-02-19T10:39:07.171Z,15.50
2019-02-19T10:44:13.412Z,15.70
2019-02-19T10:49:21.230Z,15.50
2019-02-19T10:54:27.772Z,15.60
2019-02-19T10:59:34.714Z,15.60
2019-02-19T11:04:42.551Z,16.10
2019-02-19T11:09:49.394Z,15.90
2019-02-19T11:14:57.343Z,16.10
2019-02-19T11:20:04.799Z,15.90
2019-02-19T11:25:12.480Z,16.20
2019-02-19T11:30:21.032Z,16.50
2019-02-19T11:35:31.089Z,16.30
2019-02-19T11:40:39.635Z,16.30
2019-02-19T11:45:47.540Z,16.20
2019-02-19T11:50:55.853Z,16.00
2019-02-19T11:56:02.386Z,16.10
2019-02-19T12:01:08.700Z,16.20
2019-02-19T12:06:15.940Z,15.90
2019-02-19T12:11:22.134Z,16.30
2019-02-19T12:16:28.997Z,16.20
2019-02-19T12:21:35.382Z,16.50
2019-02-19T12:26:41.765Z,16.40
2019-02-19T12:31:47.931Z,16.60
2019-02-19T12:36:54.468Z,16.50
2019-02-19T12:42:02.577Z,16.40
2019-02-19T12:47:10.291Z,16.20
2019-02-19T12:52:17.364Z,16.30
2019-02-19T12:57:25.144Z,16.80
2019-02-19T13:02:59.537Z,17.10
2019-02-19T13:08:04.517Z,17.50
2019-02-19T13:13:14.476Z,17.50
2019-02-19T13:18:22.619Z,17.20
2019-02-19T13:23:29.833Z,17.30
2019-02-19T13:28:38.062Z,16.90
2019-02-19T13:33:44.398Z,17.50
2019-02-19T13:38:52.330Z,17.30
2019-02-19T13:44:00.229Z,18.40
2019-02-19T13:49:12.238Z,19.10
2019-02-19T13:54:35.666Z,19.60
2019-02-19T13:59:41.919Z,20.00
2019-02-19T14:04:49.099Z,19.70
2019-02-19T14:09:56.256Z,20.40
2019-02-19T14:15:21.647Z,20.30
2019-02-19T14:20:47.506Z,20.80
2019-02-19T14:26:12.394Z,20.90
2019-02-19T14:31:43.594Z,21.10
2019-02-19T14:37:13.431Z,21.40
2019-02-19T14:42:41.507Z,21.40
2019-02-19T14:48:19.893Z,20.80
2019-02-19T14:53:44.525Z,21.10
2019-02-19T14:59:22.580Z,20.90
2019-02-19T15:05:02.776Z,21.30
2019-02-19T15:10:32.069Z,21.60
2019-02-19T15:15:55.966Z,21.40
2019-02-19T15:21:25.859Z,21.30
2019-02-19T15:26:44.887Z,20.50
2019-02-19T15:32:12.711Z,20.20
2019-02-19T15:37:52.232Z,20.70
2019-02-19T15:43:18.515Z,20.60
2019-02-19T15:48:45.110Z,19.90
2019-02-19T15:54:03.202Z,20.20
2019-02-19T15:59:43.680Z,20.30
2019-02-19T16:05:02.686Z,20.30
2019-02-19T16:10:31.139Z,19.80
2019-02-19T16:16:08.471Z,19.60
2019-02-19T16:21:51.778Z,18.70
2019-02-19T16:27:06.224Z,18.50
2019-02-19T16:32:37.166Z,18.30
2019-02-19T16:37:53.878Z,17.70
2019-02-19T16:43:18.391Z,17.30
2019-02-19T16:48:50.469Z,16.80
2019-02-19T16:54:15.430Z,16.20
2019-02-19T16:59:33.864Z,15.80
2019-02-19T17:04:59.795Z,15.20
2019-02-19T17:10:19.431Z,15.00
2019-02-19T17:15:46.210Z,14.80
2019-02-19T17:21:02.522Z,14.60
2019-02-19T17:26:27.308Z,14.40
2019-02-19T17:32:01.545Z,14.30
2019-02-19T17:37:20.743Z,14.30
2019-02-19T17:42:39.037Z,14.20
2019-02-19T17:48:13.532Z,14.10
2019-02-19T17:53:29.521Z,13.90
2019-02-19T17:59:01.757Z,13.80
2019-02-19T18:04:19.727Z,14.00
2019-02-19T18:09:49.628Z,14.00
2019-02-19T18:15:16.020Z,14.00
2019-02-19T18:20:24.407Z,13.90
2019-02-19T18:25:31.166Z,14.00
2019-02-19T18:30:39.979Z,14.00
2019-02-19T18:35:47.593Z,13.50
2019-02-19T18:40:55.602Z,13.20
2019-02-19T18:46:03.074Z,13.20
2019-02-19T18:51:10.240Z,13.30
2019-02-19T18:56:16.629Z,13.30
2019-02-19T19:01:23.360Z,13.80
2019-02-19T19:06:31.327Z,13.80
2019-02-19T19:11:38.231Z,13.80
2019-02-19T19:16:44.383Z,13.80
2019-02-19T19:22:03.826Z,13.90
2019-02-19T19:27:11.867Z,14.00
2019-02-19T19:32:19.447Z,14.00
2019-02-19T19:37:26.635Z,13.90
2019-02-19T19:42:32.757Z,13.90
2019-02-19T19:47:41.046Z,13.80
2019-02-19T19:52:48.968Z,13.80
2019-02-19T19:57:55.074Z,13.90
2019-02-19T20:03:02.296Z,13.90
2019-02-19T20:08:08.683Z,13.80
2019-02-19T20:13:14.926Z,13.80
2019-02-19T20:18:22.480Z,13.80
2019-02-19T20:23:30.795Z,13.70
2019-02-19T20:28:39.550Z,13.70
2019-02-19T20:33:48.531Z,13.70
2019-02-19T20:38:56.157Z,13.80
2019-02-19T20:44:03.354Z,13.80
2019-02-19T20:49:11.947Z,13.80
2019-02-19T20:54:21.523Z,13.70
2019-02-19T20:59:30.447Z,13.70
2019-02-19T21:04:38.791Z,13.60
2019-02-19T21:09:46.421Z,13.60
2019-02-19T21:14:54.990Z,13.60
2019-02-19T21:20:05.391Z,13.60
2019-02-19T21:25:12.271Z,13.60
2019-02-19T21:30:22.073Z,13.70
2019-02-19T21:35:31.653Z,13.70
2019-02-19T21:40:40.844Z,13.40
2019-02-19T21:45:52.109Z,13.40
2019-02-19T21:51:01.727Z,13.50
2019-02-19T21:56:19.821Z,13.50
2019-02-19T22:01:27.627Z,13.50
2019-02-19T22:06:34.317Z,13.50
2019-02-19T22:11:41.368Z,13.50
2019-02-19T22:16:49.704Z,13.50
2019-02-19T22:22:16.063Z,13.50
2019-02-19T22:27:22.313Z,13.50
2019-02-19T22:32:29.300Z,13.40
2019-02-19T22:37:37.478Z,13.30
2019-02-19T22:42:43.757Z,13.30
2019-02-19T22:47:53.451Z,13.30
2019-02-19T22:53:00.067Z,13.30
2019-02-19T22:58:07.376Z,13.30
2019-02-19T23:03:13.473Z,13.30
2019-02-19T23:08:21.419Z,13.20
2019-02-19T23:13:29.478Z,13.20
2019-02-19T23:18:37.416Z,13.20
2019-02-19T23:23:43.778Z,13.20
2019-02-19T23:28:51.613Z,13.20
2019-02-19T23:33:58.101Z,13.20
2019-02-19T23:39:05.759Z,13.20
2019-02-19T23:44:11.874Z,13.20
2019-02-19T23:49:22.537Z,13.20
2019-02-19T23:54:30.331Z,13.20
2019-02-19T23:59:37.274Z,13.20
